Time;durP1;ratioP1;P1;durP2;ratioP2;P2;SDS_P1;SDS_P2;PMS_P1;PMS_P2;Temp;Humidity;BMP_temperature;BMP_pressure;BME280_temperature;BME280_humidity;BME280_pressure;Samples;Min_cycle;Max_cycle;Signal;HPM_P1;HPM_P2
2023/05/24 00:00:31;;;;;;;23.30;9.20;;;9.90;99.90;;;;;;4975423;28;20806;-78
2023/05/24 00:03:01;;;;;;;20.63;8.20;;;9.90;99.90;;;;;;4979980;28;20437;-78
2023/05/24 00:05:29;;;;;;;20.73;9.00;;;9.90;99.90;;;;;;4977923;28;20836;-78
2023/05/24 00:08:00;;;;;;;23.07;8.30;;;9.90;99.90;;;;;;4978748;28;20445;-78
2023/05/24 00:10:31;;;;;;;24.53;9.80;;;9.80;99.90;;;;;;4978272;28;20445;-77
2023/05/24 00:12:59;;;;;;;21.40;9.60;;;9.80;99.90;;;;;;4978806;28;20494;-78
2023/05/24 00:15:29;;;;;;;24.20;8.83;;;9.80;99.90;;;;;;4977908;28;20466;-77
2023/05/24 00:17:57;;;;;;;20.93;9.10;;;9.80;99.90;;;;;;4977758;28;20971;-78
2023/05/24 00:20:27;;;;;;;20.03;8.07;;;9.70;99.90;;;;;;4975937;28;20943;-78
2023/05/24 00:22:55;;;;;;;18.83;8.83;;;9.70;99.90;;;;;;4975995;28;20446;-78
2023/05/24 00:25:23;;;;;;;29.83;9.63;;;9.70;99.90;;;;;;4976688;28;20511;-78
2023/05/24 00:27:55;;;;;;;22.40;9.40;;;9.60;99.90;;;;;;4976671;28;20489;-78
2023/05/24 00:30:27;;;;;;;27.40;9.37;;;9.60;99.90;;;;;;4978103;28;20839;-77
2023/05/24 00:32:59;;;;;;;23.37;9.63;;;9.60;99.90;;;;;;4977616;28;20450;-78
2023/05/24 00:35:27;;;;;;;26.33;9.73;;;9.60;99.90;;;;;;4979545;28;20473;-78
2023/05/24 00:37:56;;;;;;;24.93;10.37;;;9.60;99.90;;;;;;4977048;28;20540;-77
2023/05/24 00:40:24;;;;;;;20.93;8.47;;;9.60;99.90;;;;;;4981981;28;20512;-78
2023/05/24 00:42:53;;;;;;;19.60;9.17;;;9.60;99.90;;;;;;4980640;28;20864;-77
2023/05/24 00:45:24;;;;;;;26.17;9.53;;;9.60;99.90;;;;;;4981692;28;20465;-78
2023/05/24 00:47:52;;;;;;;25.50;9.03;;;9.60;99.90;;;;;;4980243;28;20454;-78
2023/05/24 00:50:21;;;;;;;23.47;8.97;;;9.60;99.90;;;;;;4978609;28;20453;-77
2023/05/24 00:52:51;;;;;;;22.87;9.10;;;9.60;99.90;;;;;;4976327;28;20460;-77
2023/05/24 00:55:19;;;;;;;24.70;9.70;;;9.60;99.90;;;;;;4976334;28;20480;-77
2023/05/24 00:57:49;;;;;;;23.80;10.07;;;9.50;99.90;;;;;;4976489;28;20449;-77
2023/05/24 01:00:19;;;;;;;21.77;8.80;;;9.60;99.90;;;;;;4977158;28;20536;-77
2023/05/24 01:02:50;;;;;;;25.80;10.03;;;9.50;99.90;;;;;;4978643;28;20445;-77
2023/05/24 01:05:19;;;;;;;19.40;8.87;;;9.50;99.90;;;;;;4978171;28;20454;-77
2023/05/24 01:07:58;;;;;;;19.97;9.10;;;9.60;99.90;;;;;;4977264;28;20468;-77
2023/05/24 01:10:34;;;;;;;26.10;9.10;;;9.50;99.90;;;;;;4977102;28;20457;-77
2023/05/24 01:13:12;;;;;;;24.40;9.93;;;9.50;99.90;;;;;;4977882;28;20430;-77
2023/05/24 01:15:50;;;;;;;32.03;9.53;;;9.50;99.90;;;;;;4976239;28;20484;-77
2023/05/24 01:18:24;;;;;;;24.30;8.97;;;9.50;99.90;;;;;;4977624;28;20428;-77
2023/05/24 01:21:01;;;;;;;22.03;9.53;;;9.50;99.90;;;;;;4976262;28;21034;-77
2023/05/24 01:23:42;;;;;;;20.50;9.67;;;9.50;99.90;;;;;;4981233;28;20484;-78
2023/05/24 01:26:21;;;;;;;18.13;8.80;;;9.50;99.90;;;;;;4980625;28;20458;-78
2023/05/24 01:28:52;;;;;;;25.60;10.47;;;9.50;99.90;;;;;;4980446;28;20503;-77
2023/05/24 01:31:21;;;;;;;27.50;9.70;;;9.50;99.90;;;;;;4978790;28;20893;-78
2023/05/24 01:33:49;;;;;;;20.70;9.50;;;9.50;99.90;;;;;;4978877;28;20465;-77
2023/05/24 01:36:19;;;;;;;23.90;9.50;;;9.50;99.90;;;;;;4978997;28;21031;-78
2023/05/24 01:38:49;;;;;;;26.63;9.80;;;9.50;99.90;;;;;;4976606;28;20916;-78
2023/05/24 01:41:26;;;;;;;26.10;9.40;;;9.50;99.90;;;;;;4977191;28;20517;-78
2023/05/24 01:44:05;;;;;;;23.67;10.10;;;9.40;99.90;;;;;;4975740;28;20524;-77
2023/05/24 01:46:37;;;;;;;29.70;9.97;;;9.50;99.90;;;;;;4975727;28;20483;-78
2023/05/24 01:49:19;;;;;;;24.37;10.07;;;9.50;99.90;;;;;;4976947;28;20436;-78
2023/05/24 01:51:50;;;;;;;22.90;9.73;;;9.50;99.90;;;;;;4975134;28;20433;-78
2023/05/24 01:54:22;;;;;;;19.63;9.60;;;9.50;99.90;;;;;;4975373;28;20477;-78
2023/05/24 01:56:53;;;;;;;27.70;10.20;;;9.40;99.90;;;;;;4975539;28;20982;-78
2023/05/24 01:59:26;;;;;;;27.10;10.10;;;9.50;99.90;;;;;;4975569;28;20446;-77
2023/05/24 02:01:54;;;;;;;31.77;10.23;;;9.40;99.90;;;;;;4975536;28;20446;-77
2023/05/24 02:04:23;;;;;;;23.30;9.10;;;9.50;99.90;;;;;;4976622;28;20492;-78
2023/05/24 02:06:52;;;;;;;23.20;10.30;;;9.40;99.90;;;;;;4975243;28;20568;-78
2023/05/24 02:09:20;;;;;;;23.57;10.33;;;9.40;99.90;;;;;;4975282;28;20458;-78
2023/05/24 02:11:50;;;;;;;27.63;10.73;;;9.40;99.90;;;;;;4975295;28;20450;-78
2023/05/24 02:14:18;;;;;;;24.93;9.43;;;9.40;99.90;;;;;;4975032;28;20856;-78
2023/05/24 02:16:49;;;;;;;27.53;9.10;;;9.50;99.90;;;;;;4975212;28;20557;-78
2023/05/24 02:19:18;;;;;;;22.03;9.43;;;9.50;99.90;;;;;;4975172;28;20446;-77
2023/05/24 02:21:47;;;;;;;26.83;10.17;;;9.50;99.90;;;;;;4975355;28;20453;-77
2023/05/24 02:24:15;;;;;;;21.20;9.03;;;9.50;99.90;;;;;;4974976;28;20492;-77
2023/05/24 02:26:43;;;;;;;19.83;8.60;;;9.50;99.90;;;;;;4974876;28;20533;-77
2023/05/24 02:29:11;;;;;;;25.40;8.93;;;9.50;99.90;;;;;;4974907;28;20457;-78
2023/05/24 02:31:39;;;;;;;29.73;9.93;;;9.50;99.90;;;;;;4976306;28;20437;-77
2023/05/24 02:34:09;;;;;;;26.77;10.43;;;9.50;99.90;;;;;;4974733;28;20473;-78
2023/05/24 02:36:37;;;;;;;24.13;8.40;;;9.50;99.90;;;;;;4974660;28;20561;-77
2023/05/24 02:39:06;;;;;;;22.43;9.57;;;9.60;99.90;;;;;;4974654;28;20557;-79
2023/05/24 02:41:35;;;;;;;26.47;9.53;;;9.60;99.90;;;;;;4974748;28;20565;-78
2023/05/24 02:44:03;;;;;;;21.60;8.23;;;9.60;99.90;;;;;;4974591;28;20457;-77
2023/05/24 02:46:31;;;;;;;24.53;10.13;;;9.60;99.90;;;;;;4974517;28;20594;-78
2023/05/24 02:48:59;;;;;;;26.60;10.10;;;9.50;99.90;;;;;;4977454;28;20560;-77
2023/05/24 02:51:29;;;;;;;20.37;9.10;;;9.60;99.90;;;;;;4975435;28;20538;-77
2023/05/24 02:53:57;;;;;;;29.87;9.70;;;9.60;99.90;;;;;;4975098;28;20508;-78
2023/05/24 02:56:26;;;;;;;21.63;9.83;;;9.60;99.90;;;;;;4974795;28;20466;-78
2023/05/24 02:58:55;;;;;;;29.70;9.90;;;9.60;99.90;;;;;;4974695;28;20450;-77
2023/05/24 03:01:23;;;;;;;25.70;9.70;;;9.60;99.90;;;;;;4974421;28;20481;-77
2023/05/24 03:03:53;;;;;;;20.57;9.43;;;9.60;99.90;;;;;;4974645;28;20454;-78
2023/05/24 03:06:22;;;;;;;23.33;9.90;;;9.60;99.90;;;;;;4974140;28;20474;-78
2023/05/24 03:08:52;;;;;;;23.33;9.80;;;9.60;99.90;;;;;;4974689;28;20492;-78
2023/05/24 03:11:22;;;;;;;21.33;9.10;;;9.50;99.90;;;;;;4974252;28;20581;-78
2023/05/24 03:13:50;;;;;;;20.67;9.77;;;9.50;99.90;;;;;;4974138;28;20449;-78
2023/05/24 03:16:19;;;;;;;22.07;9.33;;;9.50;99.90;;;;;;4973862;28;20836;-78
2023/05/24 03:18:49;;;;;;;27.40;10.77;;;9.50;99.90;;;;;;4975178;28;20942;-78
2023/05/24 03:21:19;;;;;;;24.17;9.90;;;9.50;99.90;;;;;;4975078;28;20468;-77
2023/05/24 03:23:48;;;;;;;22.43;9.30;;;9.50;99.90;;;;;;4973848;28;20442;-78
2023/05/24 03:26:18;;;;;;;24.33;9.53;;;9.50;99.90;;;;;;4975127;28;20461;-78
2023/05/24 03:28:46;;;;;;;21.83;9.37;;;9.50;99.90;;;;;;4973957;28;20889;-77
2023/05/24 03:31:15;;;;;;;21.67;9.60;;;9.50;99.90;;;;;;4973870;28;20460;-78
2023/05/24 03:33:44;;;;;;;19.40;8.60;;;9.50;99.90;;;;;;4973775;28;21041;-77
2023/05/24 03:36:12;;;;;;;21.70;9.03;;;9.50;99.90;;;;;;4974775;28;20488;-77
2023/05/24 03:38:40;;;;;;;23.67;9.63;;;9.50;99.90;;;;;;4973618;28;20449;-77
2023/05/24 03:41:08;;;;;;;23.20;8.57;;;9.50;99.90;;;;;;4973602;28;20454;-78
2023/05/24 03:43:38;;;;;;;25.43;9.50;;;9.50;99.90;;;;;;4973540;28;20971;-77
2023/05/24 03:46:12;;;;;;;24.67;10.50;;;9.50;99.90;;;;;;4973589;28;20993;-78
2023/05/24 03:48:42;;;;;;;22.97;9.73;;;9.50;99.90;;;;;;4974945;28;20422;-78
2023/05/24 03:51:10;;;;;;;20.07;8.97;;;9.50;99.90;;;;;;4973527;28;20462;-78
2023/05/24 03:53:39;;;;;;;18.70;8.80;;;9.50;99.90;;;;;;4974444;28;20452;-78
2023/05/24 03:56:07;;;;;;;24.30;9.30;;;9.50;99.90;;;;;;4973933;28;20575;-78
2023/05/24 03:58:36;;;;;;;19.77;9.47;;;9.50;99.90;;;;;;4973457;28;20446;-78
2023/05/24 04:01:08;;;;;;;17.30;8.63;;;9.50;99.90;;;;;;4973620;28;20442;-78
2023/05/24 04:03:39;;;;;;;27.07;10.60;;;9.50;99.90;;;;;;4973442;28;20448;-78
2023/05/24 04:06:07;;;;;;;22.70;9.80;;;9.60;99.90;;;;;;4973268;28;20983;-78
2023/05/24 04:08:35;;;;;;;21.80;9.10;;;9.50;99.90;;;;;;4973452;28;20548;-78
2023/05/24 04:11:04;;;;;;;23.00;10.37;;;9.50;99.90;;;;;;4973275;28;20520;-78
2023/05/24 04:13:32;;;;;;;22.73;9.20;;;9.50;99.90;;;;;;4976188;28;20441;-78
2023/05/24 04:16:00;;;;;;;21.30;9.07;;;9.50;99.90;;;;;;4979609;28;20487;-78
2023/05/24 04:18:29;;;;;;;23.43;9.13;;;9.50;99.90;;;;;;4979587;28;20489;-77
2023/05/24 04:20:58;;;;;;;20.20;8.67;;;9.50;99.90;;;;;;4979754;28;20508;-78
2023/05/24 04:23:26;;;;;;;17.63;8.50;;;9.50;99.90;;;;;;4979606;28;20484;-78
2023/05/24 04:25:54;;;;;;;24.63;9.17;;;9.50;99.90;;;;;;4979523;28;20465;-78
2023/05/24 04:28:22;;;;;;;22.90;9.50;;;9.50;99.90;;;;;;4979704;28;20540;-77
2023/05/24 04:30:52;;;;;;;20.47;9.13;;;9.50;99.90;;;;;;4979649;28;20888;-78
2023/05/24 04:33:21;;;;;;;21.63;9.67;;;9.50;99.90;;;;;;4979663;28;20532;-78
2023/05/24 04:35:52;;;;;;;21.93;9.00;;;9.50;99.90;;;;;;4979535;28;20480;-78
2023/05/24 04:38:20;;;;;;;18.70;8.93;;;9.60;99.90;;;;;;4979665;28;20445;-78
2023/05/24 04:40:49;;;;;;;19.50;8.30;;;9.60;99.90;;;;;;4979722;28;20485;-78
2023/05/24 04:43:17;;;;;;;22.17;9.10;;;9.60;99.90;;;;;;4980970;28;20465;-78
2023/05/24 04:45:45;;;;;;;17.57;8.43;;;9.60;99.90;;;;;;4979435;28;20479;-78
2023/05/24 04:48:13;;;;;;;24.33;8.93;;;9.60;99.90;;;;;;4979624;28;20785;-78
2023/05/24 04:50:41;;;;;;;18.50;8.03;;;9.60;99.90;;;;;;4979387;28;20493;-78
2023/05/24 04:53:11;;;;;;;23.13;8.20;;;9.60;99.90;;;;;;4979474;28;20540;-78
2023/05/24 04:55:39;;;;;;;19.97;10.03;;;9.70;99.90;;;;;;4979097;28;20485;-78
2023/05/24 04:58:07;;;;;;;24.57;9.67;;;9.70;99.90;;;;;;4980730;28;20433;-78
2023/05/24 05:00:37;;;;;;;19.50;8.73;;;9.70;99.90;;;;;;4981204;28;20863;-78
2023/05/24 05:03:05;;;;;;;17.80;8.17;;;9.70;99.90;;;;;;4979695;28;20445;-78
2023/05/24 05:05:34;;;;;;;20.90;8.33;;;9.70;99.90;;;;;;4980526;28;20469;-78
2023/05/24 05:08:02;;;;;;;23.43;8.57;;;9.80;99.90;;;;;;4980608;28;20530;-78
2023/05/24 05:10:32;;;;;;;20.30;8.50;;;9.80;99.90;;;;;;4980504;28;20925;-77
2023/05/24 05:13:00;;;;;;;20.17;9.03;;;9.80;99.90;;;;;;4979850;28;20445;-78
2023/05/24 05:15:28;;;;;;;21.50;9.93;;;9.80;99.90;;;;;;4979434;28;20505;-78
2023/05/24 05:17:56;;;;;;;21.20;8.80;;;9.90;99.90;;;;;;4980236;28;20508;-78
2023/05/24 05:20:25;;;;;;;18.23;7.70;;;9.80;99.90;;;;;;4981273;28;20442;-78
2023/05/24 05:22:53;;;;;;;22.87;8.43;;;9.90;99.90;;;;;;4981760;28;20492;-78
2023/05/24 05:25:21;;;;;;;18.00;8.40;;;9.90;99.90;;;;;;4976251;28;20730;-78
2023/05/24 05:27:51;;;;;;;22.10;9.33;;;9.90;99.90;;;;;;4976567;28;20830;-77
2023/05/24 05:30:19;;;;;;;20.93;8.43;;;10.00;99.90;;;;;;4976158;28;20484;-78
2023/05/24 05:32:47;;;;;;;22.00;9.10;;;9.90;99.90;;;;;;4976105;28;20441;-78
2023/05/24 05:35:15;;;;;;;22.33;8.40;;;10.00;99.90;;;;;;4975964;28;20523;-77
2023/05/24 05:37:44;;;;;;;23.17;9.57;;;10.00;99.90;;;;;;4977251;28;20481;-78
2023/05/24 05:40:12;;;;;;;17.90;8.70;;;10.00;99.90;;;;;;4976028;28;20505;-78
2023/05/24 05:42:40;;;;;;;19.53;9.23;;;10.00;99.90;;;;;;4977068;28;20453;-78
2023/05/24 05:45:11;;;;;;;21.13;8.70;;;10.00;99.90;;;;;;4977235;28;20461;-78
2023/05/24 05:47:39;;;;;;;23.70;9.17;;;10.00;99.90;;;;;;4976508;28;20450;-77
2023/05/24 05:50:08;;;;;;;19.40;9.57;;;10.00;99.90;;;;;;4976007;28;20460;-79
2023/05/24 05:52:36;;;;;;;16.43;8.20;;;10.10;99.90;;;;;;4975772;28;20446;-78
2023/05/24 05:55:05;;;;;;;19.77;9.20;;;10.10;99.90;;;;;;4976415;28;20835;-78
2023/05/24 05:57:34;;;;;;;18.73;8.63;;;10.10;99.90;;;;;;4976013;28;20482;-78
2023/05/24 06:00:02;;;;;;;22.03;9.33;;;10.10;99.90;;;;;;4978423;28;20951;-78
2023/05/24 06:02:40;;;;;;;21.80;8.50;;;10.20;99.90;;;;;;4977337;28;20418;-78
2023/05/24 06:05:09;;;;;;;17.30;7.63;;;10.20;99.90;;;;;;4975528;28;20497;-78
2023/05/24 06:07:37;;;;;;;27.40;8.60;;;10.20;99.90;;;;;;4978346;28;20442;-78
2023/05/24 06:10:06;;;;;;;22.40;8.30;;;10.30;99.90;;;;;;4975676;28;20537;-78
2023/05/24 06:12:35;;;;;;;17.43;8.30;;;10.30;99.90;;;;;;4976776;28;20446;-78
2023/05/24 06:15:05;;;;;;;20.90;8.73;;;10.40;99.90;;;;;;4976749;28;20847;-77
2023/05/24 06:17:33;;;;;;;19.23;8.83;;;10.40;99.90;;;;;;4975391;28;20473;-77
2023/05/24 06:20:12;;;;;;;17.00;8.57;;;10.40;99.90;;;;;;4976944;28;20446;-78
2023/05/24 06:22:41;;;;;;;22.13;9.40;;;10.50;99.90;;;;;;4975760;28;20537;-78
2023/05/24 06:25:14;;;;;;;13.97;7.23;;;10.50;99.90;;;;;;4976233;28;20477;-78
2023/05/24 06:27:42;;;;;;;18.90;7.50;;;10.60;99.90;;;;;;4976682;28;20453;-78
2023/05/24 06:30:11;;;;;;;21.27;8.43;;;10.60;99.90;;;;;;4975415;28;20524;-78
2023/05/24 06:32:40;;;;;;;22.80;8.67;;;10.60;99.90;;;;;;4979240;28;20442;-78
2023/05/24 06:35:10;;;;;;;22.50;9.37;;;10.60;99.90;;;;;;4975932;28;20470;-78
2023/05/24 06:37:38;;;;;;;17.53;7.13;;;10.70;99.90;;;;;;4976833;28;20462;-78
2023/05/24 06:40:08;;;;;;;21.00;9.00;;;10.70;99.90;;;;;;4975279;28;21046;-78
2023/05/24 06:42:37;;;;;;;19.43;7.90;;;10.70;99.90;;;;;;4975068;28;20967;-78
2023/05/24 06:45:07;;;;;;;17.27;7.90;;;10.70;99.90;;;;;;4975925;28;20485;-78
2023/05/24 06:47:35;;;;;;;21.13;7.50;;;10.70;99.90;;;;;;4974933;28;20444;-77
2023/05/24 06:50:05;;;;;;;18.43;7.80;;;10.80;99.90;;;;;;4974783;28;20943;-78
2023/05/24 06:52:35;;;;;;;29.63;8.43;;;10.80;99.90;;;;;;4975092;28;20464;-78
2023/05/24 06:55:04;;;;;;;21.93;9.67;;;10.80;99.90;;;;;;4976341;28;21017;-78
2023/05/24 06:57:32;;;;;;;20.47;9.17;;;10.80;99.90;;;;;;4975767;28;20935;-78
2023/05/24 07:00:05;;;;;;;23.33;8.17;;;10.80;99.90;;;;;;4975019;28;20500;-78
2023/05/24 07:02:35;;;;;;;19.57;8.13;;;10.80;99.90;;;;;;4976911;28;20941;-77
2023/05/24 07:05:05;;;;;;;20.10;8.30;;;10.80;99.90;;;;;;4975029;28;21003;-78
2023/05/24 07:07:34;;;;;;;21.53;8.90;;;10.80;99.90;;;;;;4974993;28;20450;-77
2023/05/24 07:10:03;;;;;;;25.60;9.60;;;10.90;99.90;;;;;;4976340;28;20441;-78
2023/05/24 07:12:34;;;;;;;20.63;8.67;;;10.90;99.90;;;;;;4976559;28;20542;-77
2023/05/24 07:15:02;;;;;;;19.63;8.67;;;10.90;99.90;;;;;;4974897;28;20532;-77
2023/05/24 07:17:30;;;;;;;23.93;7.93;;;10.90;99.90;;;;;;4975976;28;20476;-77
2023/05/24 07:20:00;;;;;;;21.07;8.60;;;10.90;99.90;;;;;;4974295;28;20461;-78
2023/05/24 07:22:30;;;;;;;22.00;8.50;;;11.00;99.90;;;;;;4974761;28;20462;-78
2023/05/24 07:25:00;;;;;;;27.07;8.70;;;11.00;99.90;;;;;;4975893;28;20505;-77
2023/05/24 07:27:28;;;;;;;26.93;10.03;;;11.00;99.90;;;;;;4974839;28;20492;-77
2023/05/24 07:29:57;;;;;;;19.57;7.83;;;11.10;99.90;;;;;;4974531;28;20457;-77
2023/05/24 07:32:25;;;;;;;27.97;9.10;;;11.10;99.90;;;;;;4974819;28;20456;-78
2023/05/24 07:34:54;;;;;;;22.93;8.97;;;11.20;99.90;;;;;;4975136;28;20982;-78
2023/05/24 07:37:23;;;;;;;26.20;8.77;;;11.20;99.90;;;;;;4975574;28;21018;-78
2023/05/24 07:39:52;;;;;;;19.97;8.70;;;11.20;99.90;;;;;;4974597;28;20951;-77
2023/05/24 07:42:24;;;;;;;27.50;8.60;;;11.20;99.90;;;;;;4974620;28;20450;-77
2023/05/24 07:44:54;;;;;;;22.47;9.10;;;11.20;99.90;;;;;;4975272;28;20500;-78
2023/05/24 07:47:22;;;;;;;22.80;8.30;;;11.30;99.90;;;;;;4975033;28;20488;-79
2023/05/24 07:49:50;;;;;;;22.07;8.63;;;11.30;99.90;;;;;;4974581;28;20998;-78
2023/05/24 07:52:19;;;;;;;22.90;9.40;;;11.30;99.90;;;;;;4976025;28;20996;-78
2023/05/24 07:54:47;;;;;;;23.90;8.80;;;11.30;99.90;;;;;;4974539;28;20465;-78
2023/05/24 07:57:15;;;;;;;20.20;8.90;;;11.30;99.90;;;;;;4974231;28;20528;-78
2023/05/24 07:59:45;;;;;;;23.90;8.73;;;11.40;99.90;;;;;;4974753;28;20456;-78
2023/05/24 08:02:14;;;;;;;26.23;8.77;;;11.40;99.90;;;;;;4974481;28;20458;-78
2023/05/24 08:04:42;;;;;;;23.10;9.93;;;11.40;99.90;;;;;;4973908;28;20446;-77
2023/05/24 08:07:11;;;;;;;20.30;8.50;;;11.50;99.90;;;;;;4973930;28;20478;-78
2023/05/24 08:09:39;;;;;;;19.17;7.90;;;11.50;99.90;;;;;;4973944;28;20461;-78
2023/05/24 08:12:08;;;;;;;21.93;8.13;;;11.50;99.90;;;;;;4974427;28;20956;-77
2023/05/24 08:14:36;;;;;;;19.97;8.10;;;11.50;99.90;;;;;;4976174;28;20446;-78
2023/05/24 08:17:06;;;;;;;19.17;8.67;;;11.60;99.90;;;;;;4973989;28;20469;-78
2023/05/24 08:19:34;;;;;;;29.23;9.47;;;11.60;99.90;;;;;;4975166;28;20548;-78
2023/05/24 08:22:04;;;;;;;22.20;10.07;;;11.60;99.90;;;;;;4974729;28;20454;-78
2023/05/24 08:24:32;;;;;;;27.23;8.70;;;11.60;99.90;;;;;;4974552;28;20460;-78
2023/05/24 08:27:03;;;;;;;24.50;9.57;;;11.60;99.90;;;;;;4975279;28;20458;-78
2023/05/24 08:29:31;;;;;;;24.63;8.90;;;11.60;99.90;;;;;;4974364;28;20513;-77
2023/05/24 08:32:00;;;;;;;20.60;8.50;;;11.60;99.90;;;;;;4974302;28;20468;-79
2023/05/24 08:34:30;;;;;;;23.77;8.70;;;11.60;99.90;;;;;;4974109;28;20544;-78
2023/05/24 08:36:58;;;;;;;24.87;8.80;;;11.60;99.90;;;;;;4973442;28;20509;-78
2023/05/24 08:39:26;;;;;;;21.47;8.90;;;11.60;99.90;;;;;;4975305;28;20441;-78
2023/05/24 08:41:55;;;;;;;22.27;8.90;;;11.70;99.90;;;;;;4975159;28;20492;-77
2023/05/24 08:44:46;;;;;;;18.67;8.60;;;11.70;99.90;;;;;;4974106;28;20957;-79
2023/05/24 08:47:16;;;;;;;27.20;8.90;;;11.70;99.90;;;;;;4974055;28;20457;-79
2023/05/24 08:49:47;;;;;;;21.40;9.37;;;11.70;99.90;;;;;;4974888;28;20441;-77
2023/05/24 08:52:19;;;;;;;20.07;8.83;;;11.70;99.90;;;;;;4973813;28;20532;-77
2023/05/24 08:54:49;;;;;;;22.80;9.10;;;11.80;99.90;;;;;;4973558;28;20973;-78
2023/05/24 08:57:19;;;;;;;24.00;8.13;;;11.80;99.90;;;;;;4974973;28;20442;-78
2023/05/24 08:59:47;;;;;;;18.97;7.97;;;11.80;99.90;;;;;;4975337;28;20508;-78
2023/05/24 09:02:16;;;;;;;24.07;9.40;;;11.90;99.90;;;;;;4977364;28;20496;-78
2023/05/24 09:04:48;;;;;;;21.90;9.40;;;11.90;99.90;;;;;;4977151;28;20955;-78
2023/05/24 09:07:19;;;;;;;24.90;9.83;;;12.00;99.90;;;;;;4978419;28;20493;-78
2023/05/24 09:09:50;;;;;;;24.75;9.27;;;12.10;99.90;;;;;;4976762;28;20442;-78
2023/05/24 09:12:21;;;;;;;22.80;8.47;;;12.20;99.90;;;;;;4976849;28;20201;-78
2023/05/24 09:15:05;;;;;;;20.93;8.23;;;12.30;99.90;;;;;;4976940;28;20489;-78
2023/05/24 09:17:35;;;;;;;22.60;8.47;;;12.40;99.90;;;;;;4978267;28;20445;-78
2023/05/24 09:20:07;;;;;;;20.17;8.70;;;12.40;99.90;;;;;;4977219;28;20556;-78
2023/05/24 09:22:37;;;;;;;23.07;8.67;;;12.50;99.90;;;;;;4978401;28;20438;-77
2023/05/24 09:25:10;;;;;;;23.07;9.37;;;12.50;99.90;;;;;;4976952;28;20504;-77
2023/05/24 09:27:38;;;;;;;21.10;8.93;;;12.50;99.90;;;;;;4976716;28;20461;-78
2023/05/24 09:30:11;;;;;;;23.83;9.90;;;12.50;99.90;;;;;;4976701;28;20528;-77
2023/05/24 09:32:39;;;;;;;26.57;9.23;;;12.60;99.90;;;;;;4976768;28;20445;-77
2023/05/24 09:35:10;;;;;;;17.70;7.50;;;12.60;99.90;;;;;;4976699;28;20481;-77
2023/05/24 09:37:39;;;;;;;19.50;8.13;;;12.70;99.90;;;;;;4976320;28;20516;-77
2023/05/24 09:40:18;;;;;;;17.40;7.87;;;12.70;99.90;;;;;;4976543;28;20464;-78
2023/05/24 09:42:50;;;;;;;21.60;9.20;;;12.70;99.90;;;;;;4976682;28;20441;-77
2023/05/24 09:45:18;;;;;;;27.63;9.80;;;12.70;99.90;;;;;;4977332;28;21065;-78
2023/05/24 09:47:47;;;;;;;19.53;8.27;;;12.70;99.90;;;;;;4976385;28;20461;-78
2023/05/24 09:50:17;;;;;;;18.70;8.03;;;12.70;99.90;;;;;;4976395;28;20460;-78
2023/05/24 09:52:45;;;;;;;18.07;7.93;;;12.80;99.90;;;;;;4976366;28;20472;-78
2023/05/24 09:55:14;;;;;;;21.57;8.50;;;12.80;99.90;;;;;;4976332;28;20477;-77
2023/05/24 09:57:44;;;;;;;19.07;8.80;;;12.80;99.90;;;;;;4976374;28;20959;-78
2023/05/24 10:00:15;;;;;;;18.77;8.30;;;12.80;99.90;;;;;;4976567;28;20454;-79
2023/05/24 10:02:45;;;;;;;24.53;9.17;;;12.80;99.90;;;;;;4977553;28;20443;-78
2023/05/24 10:05:23;;;;;;;18.10;8.80;;;12.80;99.90;;;;;;4975620;28;20480;-78
2023/05/24 10:07:52;;;;;;;18.80;7.80;;;12.80;99.90;;;;;;4975781;28;20500;-78
2023/05/24 10:10:20;;;;;;;16.77;8.30;;;12.90;99.90;;;;;;4975768;28;20449;-78
2023/05/24 10:12:49;;;;;;;25.43;8.60;;;12.90;99.90;;;;;;4976478;28;20870;-78
2023/05/24 10:15:18;;;;;;;18.77;7.60;;;13.00;99.90;;;;;;4975835;28;20528;-79
2023/05/24 10:17:46;;;;;;;22.67;8.20;;;13.00;99.90;;;;;;4975983;28;20948;-78
2023/05/24 10:20:14;;;;;;;20.20;8.30;;;13.10;99.90;;;;;;4976105;28;20509;-78
2023/05/24 10:22:50;;;;;;;21.67;8.67;;;13.10;99.90;;;;;;4976932;28;20957;-78
2023/05/24 10:25:24;;;;;;;19.97;8.83;;;13.10;99.90;;;;;;4975534;28;20593;-78
2023/05/24 10:27:57;;;;;;;19.47;8.27;;;13.20;99.90;;;;;;4975647;28;20446;-78
2023/05/24 10:30:32;;;;;;;19.67;9.00;;;13.20;99.90;;;;;;4976692;28;20453;-79
2023/05/24 10:33:03;;;;;;;19.77;8.37;;;13.20;99.90;;;;;;4976174;28;20448;-78
2023/05/24 10:35:36;;;;;;;22.80;8.83;;;13.20;99.90;;;;;;4975408;28;21070;-78
2023/05/24 10:38:07;;;;;;;17.93;8.30;;;13.20;99.90;;;;;;4976958;28;20472;-78
2023/05/24 10:40:42;;;;;;;20.57;8.67;;;13.30;99.90;;;;;;4975709;28;20484;-78
2023/05/24 10:43:10;;;;;;;22.40;9.40;;;13.30;99.90;;;;;;4975470;28;20951;-78
2023/05/24 10:45:40;;;;;;;21.13;9.10;;;13.20;99.90;;;;;;4975673;28;20465;-78
2023/05/24 10:48:24;;;;;;;18.33;9.90;;;13.30;99.90;;;;;;4976734;28;20542;-78
2023/05/24 10:50:52;;;;;;;21.10;10.27;;;13.20;99.90;;;;;;4975621;28;20962;-78
2023/05/24 10:53:23;;;;;;;17.63;8.37;;;13.30;99.90;;;;;;4974936;28;20202;-78
2023/05/24 10:55:53;;;;;;;21.43;9.87;;;13.30;99.90;;;;;;4974911;28;20474;-78
2023/05/24 10:58:27;;;;;;;21.40;9.80;;;13.20;99.90;;;;;;4975070;28;20450;-78
2023/05/24 11:00:55;;;;;;;22.30;9.77;;;13.30;99.90;;;;;;4974862;28;20517;-78
2023/05/24 11:03:24;;;;;;;20.83;9.30;;;13.20;99.90;;;;;;4976553;28;20438;-78
2023/05/24 11:05:54;;;;;;;19.20;8.87;;;13.30;99.90;;;;;;4975052;28;20476;-78
2023/05/24 11:08:31;;;;;;;21.40;9.00;;;13.30;99.90;;;;;;4975084;28;20492;-77
2023/05/24 11:11:06;;;;;;;20.67;8.73;;;13.30;99.90;;;;;;4974526;28;20446;-78
2023/05/24 11:13:57;;;;;;;19.87;9.00;;;13.30;99.90;;;;;;4975916;28;20430;-78
2023/05/24 11:16:36;;;;;;;23.40;9.30;;;13.30;99.90;;;;;;4974287;28;21053;-78
2023/05/24 11:19:13;;;;;;;29.53;9.60;;;13.40;99.90;;;;;;4974004;28;20845;-78
2023/05/24 11:21:43;;;;;;;17.00;7.80;;;13.40;99.90;;;;;;4974012;28;20450;-78
2023/05/24 11:24:13;;;;;;;20.33;9.90;;;13.40;99.90;;;;;;4973140;28;20955;-78
2023/05/24 11:26:41;;;;;;;17.63;7.73;;;13.40;99.90;;;;;;4975249;28;20556;-78
2023/05/24 11:29:09;;;;;;;19.53;8.40;;;13.40;99.90;;;;;;4974494;28;20489;-78
2023/05/24 11:31:38;;;;;;;18.33;8.13;;;13.50;99.90;;;;;;4974339;28;20955;-78
2023/05/24 11:34:11;;;;;;;17.53;8.10;;;13.60;99.90;;;;;;4974014;28;20955;-78
2023/05/24 11:36:40;;;;;;;17.90;7.87;;;13.60;99.90;;;;;;4973787;28;21083;-78
2023/05/24 11:39:09;;;;;;;21.70;9.40;;;13.60;99.90;;;;;;4975483;28;20497;-78
2023/05/24 11:41:39;;;;;;;20.53;8.73;;;13.60;99.90;;;;;;4973876;28;20460;-78
2023/05/24 11:44:09;;;;;;;20.00;8.90;;;13.60;99.90;;;;;;4974121;28;20453;-78
2023/05/24 11:46:38;;;;;;;18.80;7.97;;;13.60;99.90;;;;;;4975061;28;20470;-77
2023/05/24 11:49:07;;;;;;;18.70;8.97;;;13.60;99.90;;;;;;4974172;28;20470;-78
2023/05/24 11:51:36;;;;;;;16.20;8.10;;;13.60;99.90;;;;;;4974176;28;20445;-79
2023/05/24 11:54:04;;;;;;;17.60;8.00;;;13.60;99.90;;;;;;4975250;28;21045;-81
2023/05/24 11:56:34;;;;;;;16.47;8.77;;;13.60;99.90;;;;;;4978238;28;20462;-77
2023/05/24 11:59:11;;;;;;;19.60;9.27;;;13.60;99.90;;;;;;4973896;28;20446;-79
2023/05/24 12:01:40;;;;;;;18.93;8.40;;;13.60;99.90;;;;;;4975288;28;20447;-83
2023/05/24 12:04:09;;;;;;;23.23;9.83;;;13.60;99.90;;;;;;4976556;28;20517;-76
2023/05/24 12:06:39;;;;;;;19.80;9.50;;;13.60;99.90;;;;;;4979431;28;20458;-76
2023/05/24 12:09:09;;;;;;;20.80;11.00;;;13.60;99.90;;;;;;4979125;28;20446;-78
2023/05/24 12:11:41;;;;;;;24.77;10.97;;;13.60;99.90;;;;;;4975910;28;20473;-78
2023/05/24 12:14:14;;;;;;;23.40;9.97;;;13.60;99.90;;;;;;4976769;28;20944;-78
2023/05/24 12:16:44;;;;;;;21.30;10.77;;;13.60;99.90;;;;;;4976172;28;20918;-79
2023/05/24 12:19:18;;;;;;;20.53;11.20;;;13.60;99.90;;;;;;4975416;28;20446;-78
2023/05/24 12:22:01;;;;;;;18.00;10.23;;;13.60;99.90;;;;;;4974300;28;20441;-79
2023/05/24 12:24:31;;;;;;;19.10;9.60;;;13.50;99.90;;;;;;4974353;28;20460;-75
2023/05/24 12:27:05;;;;;;;18.20;9.80;;;13.50;99.90;;;;;;4974823;28;20461;-78
2023/05/24 12:29:37;;;;;;;22.70;9.60;;;13.50;99.90;;;;;;4975386;28;20561;-82
2023/05/24 12:32:10;;;;;;;18.77;9.63;;;13.50;99.90;;;;;;4976282;28;20939;-79
2023/05/24 12:34:41;;;;;;;26.10;10.97;;;13.50;99.90;;;;;;4979152;28;20817;-79
2023/05/24 12:37:10;;;;;;;20.07;10.17;;;13.50;99.90;;;;;;4982924;28;20441;-79
2023/05/24 12:39:41;;;;;;;17.70;9.17;;;13.50;99.90;;;;;;4980525;28;20473;-79
2023/05/24 12:42:11;;;;;;;19.33;10.10;;;13.50;99.90;;;;;;4980065;28;20473;-81
2023/05/24 12:44:41;;;;;;;18.23;8.80;;;13.50;99.90;;;;;;4981230;28;20460;-79
2023/05/24 12:47:10;;;;;;;18.30;8.77;;;13.60;99.90;;;;;;4980017;28;20449;-79
2023/05/24 12:49:39;;;;;;;15.43;8.30;;;13.60;99.90;;;;;;4980193;28;20453;-79
2023/05/24 12:52:07;;;;;;;17.37;8.90;;;13.60;99.90;;;;;;4979269;28;20437;-79
2023/05/24 12:54:35;;;;;;;15.53;8.23;;;13.60;99.90;;;;;;4983260;28;20865;-79